createdAt,value
2018-11-05T00:01:21.078Z,6.93
2018-11-05T00:04:23.991Z,6.77
2018-11-05T00:07:26.911Z,6.83
2018-11-05T00:10:29.794Z,6.70
2018-11-05T00:13:32.756Z,6.63
2018-11-05T00:16:35.880Z,6.61
2018-11-05T00:19:38.890Z,6.62
2018-11-05T00:22:41.924Z,6.75
2018-11-05T00:25:44.889Z,6.70
2018-11-05T00:28:47.841Z,6.59
2018-11-05T00:31:50.762Z,6.53
2018-11-05T00:34:53.713Z,6.54
2018-11-05T00:37:56.625Z,6.73
2018-11-05T00:40:59.545Z,6.58
2018-11-05T00:44:02.543Z,6.49
2018-11-05T00:47:05.640Z,6.45
2018-11-05T00:50:11.413Z,6.49
2018-11-05T00:53:14.326Z,6.51
2018-11-05T00:56:17.256Z,6.70
2018-11-05T00:59:20.253Z,6.67
2018-11-05T01:02:23.210Z,6.72
2018-11-05T01:05:26.145Z,6.76
2018-11-05T01:08:29.101Z,6.61
2018-11-05T01:11:32.087Z,6.37
2018-11-05T01:14:35.000Z,6.31
2018-11-05T01:17:38.377Z,6.32
2018-11-05T01:20:41.332Z,6.32
2018-11-05T01:23:44.309Z,6.39
2018-11-05T01:26:47.209Z,6.23
2018-11-05T01:29:50.114Z,6.37
2018-11-05T01:32:53.054Z,6.35
2018-11-05T01:35:55.975Z,6.56
2018-11-05T01:38:58.930Z,6.62
2018-11-05T01:42:01.964Z,6.63
2018-11-05T01:45:06.666Z,6.57
2018-11-05T01:48:09.620Z,6.64
2018-11-05T01:51:12.748Z,6.65
2018-11-05T01:54:15.689Z,6.66
2018-11-05T01:57:18.601Z,6.63
2018-11-05T02:00:21.620Z,6.54
2018-11-05T02:03:24.549Z,6.47
2018-11-05T02:06:27.498Z,6.40
2018-11-05T02:09:30.421Z,6.52
2018-11-05T02:12:33.351Z,6.47
2018-11-05T02:15:36.266Z,6.59
2018-11-05T02:18:39.181Z,6.61
2018-11-05T02:21:42.143Z,6.64
2018-11-05T02:24:45.127Z,6.55
2018-11-05T02:27:48.156Z,6.67
2018-11-05T02:30:51.689Z,6.62
2018-11-05T02:33:54.622Z,6.49
2018-11-05T02:36:57.553Z,6.48
2018-11-05T02:43:12.683Z,6.55
2018-11-05T02:46:15.605Z,6.50
2018-11-05T02:49:18.538Z,6.45
2018-11-05T02:52:21.520Z,6.58
2018-11-05T02:55:24.495Z,6.59
2018-11-05T02:58:27.914Z,6.63
2018-11-05T03:01:30.892Z,6.57
2018-11-05T03:04:33.821Z,6.62
2018-11-05T03:07:36.770Z,6.68
2018-11-05T03:10:39.705Z,6.66
2018-11-05T03:13:42.583Z,6.66
2018-11-05T03:16:45.561Z,6.70
2018-11-05T03:19:48.498Z,6.79
2018-11-05T03:22:51.481Z,6.68
2018-11-05T03:25:54.409Z,6.60
2018-11-05T03:28:57.431Z,6.54
2018-11-05T03:32:00.398Z,6.52
2018-11-05T03:35:03.914Z,6.63
2018-11-05T03:38:06.882Z,6.53
2018-11-05T03:41:09.801Z,6.68
2018-11-05T03:44:12.772Z,6.58
2018-11-05T03:47:15.697Z,6.68
2018-11-05T03:50:18.721Z,6.68
2018-11-05T03:53:21.705Z,6.63
2018-11-05T03:56:24.847Z,6.65
2018-11-05T03:59:27.733Z,6.68
2018-11-05T04:02:30.669Z,6.69
2018-11-05T04:05:33.582Z,6.63
2018-11-05T04:08:36.505Z,6.64
2018-11-05T04:11:39.449Z,6.63
2018-11-05T04:14:42.378Z,6.70
2018-11-05T04:17:45.316Z,6.79
2018-11-05T04:20:48.225Z,6.70
2018-11-05T04:23:51.121Z,6.53
2018-11-05T04:26:54.081Z,6.57
2018-11-05T04:29:57.014Z,6.55
2018-11-05T04:32:59.973Z,6.56
2018-11-05T04:36:02.934Z,6.64
2018-11-05T04:39:11.856Z,6.68
2018-11-05T04:42:14.810Z,6.68
2018-11-05T04:45:17.745Z,6.62
2018-11-05T04:48:20.629Z,6.53
2018-11-05T04:51:23.541Z,6.54
2018-11-05T04:54:26.504Z,6.65
2018-11-05T04:57:29.493Z,6.69
2018-11-05T05:00:32.413Z,6.53
2018-11-05T05:03:35.403Z,6.55
2018-11-05T05:06:38.310Z,6.62
2018-11-05T05:09:41.283Z,6.59
2018-11-05T05:12:44.287Z,6.56
2018-11-05T05:15:47.206Z,6.59
2018-11-05T05:18:50.145Z,6.60
2018-11-05T05:21:53.096Z,6.59
2018-11-05T05:24:56.300Z,6.55
2018-11-05T05:27:59.202Z,6.56
2018-11-05T05:31:02.183Z,6.52
2018-11-05T05:34:05.653Z,6.47
2018-11-05T05:37:08.641Z,6.52
2018-11-05T05:40:11.621Z,6.55
2018-11-05T05:43:14.513Z,6.53
2018-11-05T05:46:17.485Z,6.39
2018-11-05T05:49:20.521Z,6.45
2018-11-05T05:52:23.505Z,6.41
2018-11-05T05:55:26.434Z,6.38
2018-11-05T05:58:29.404Z,6.36
2018-11-05T06:01:32.418Z,6.35
2018-11-05T06:04:35.345Z,6.40
2018-11-05T06:07:38.968Z,6.26
2018-11-05T06:10:41.956Z,6.23
2018-11-05T06:13:44.935Z,6.22
2018-11-05T06:16:47.897Z,6.21
2018-11-05T06:19:50.822Z,6.25
2018-11-05T06:22:53.765Z,6.25
2018-11-05T06:25:56.725Z,6.09
2018-11-05T06:28:59.716Z,6.12
2018-11-05T06:32:02.691Z,6.15
2018-11-05T06:35:06.550Z,6.22
2018-11-05T06:38:09.475Z,6.14
2018-11-05T06:41:12.444Z,6.17
2018-11-05T06:44:15.516Z,6.21
2018-11-05T06:47:18.348Z,6.33
2018-11-05T06:50:23.434Z,6.29
2018-11-05T06:53:26.404Z,6.31
2018-11-05T06:56:29.351Z,6.28
2018-11-05T06:59:32.305Z,6.22
2018-11-05T07:02:35.314Z,6.28
2018-11-05T07:05:38.325Z,6.31
2018-11-05T07:08:41.224Z,6.38
2018-11-05T07:11:44.207Z,6.48
2018-11-05T07:14:47.208Z,6.47
2018-11-05T07:17:50.163Z,6.43
2018-11-05T07:20:53.106Z,6.47
2018-11-05T07:23:56.011Z,6.57
2018-11-05T07:26:58.989Z,6.54
2018-11-05T07:30:02.362Z,6.59
2018-11-05T07:33:05.579Z,6.71
2018-11-05T07:36:08.529Z,6.71
2018-11-05T07:39:12.285Z,6.64
2018-11-05T07:42:15.225Z,6.73
2018-11-05T07:45:19.592Z,6.72
2018-11-05T07:48:22.526Z,6.86
2018-11-05T07:51:25.456Z,7.24
2018-11-05T07:54:28.419Z,7.57
2018-11-05T07:57:31.358Z,7.17
2018-11-05T08:00:40.200Z,7.11
2018-11-05T08:03:43.168Z,7.13
2018-11-05T08:06:46.100Z,7.22
2018-11-05T08:09:49.092Z,7.17
2018-11-05T08:12:52.020Z,7.20
2018-11-05T08:15:54.998Z,7.22
2018-11-05T08:18:57.926Z,7.28
2018-11-05T08:22:01.061Z,7.29
2018-11-05T08:25:04.054Z,7.33
2018-11-05T08:28:07.018Z,7.40
2018-11-05T08:31:09.949Z,7.42
2018-11-05T08:34:12.972Z,7.47
2018-11-05T08:37:15.880Z,7.46
2018-11-05T08:40:21.326Z,7.45
2018-11-05T08:43:24.266Z,7.46
2018-11-05T08:46:27.209Z,7.54
2018-11-05T08:49:30.110Z,7.53
2018-11-05T08:52:33.025Z,7.60
2018-11-05T08:55:35.956Z,7.60
2018-11-05T08:58:38.869Z,7.68
2018-11-05T09:01:41.910Z,7.72
2018-11-05T09:04:44.916Z,7.77
2018-11-05T09:07:48.623Z,7.87
2018-11-05T09:10:51.955Z,8.02
2018-11-05T09:13:55.402Z,8.07
2018-11-05T09:16:58.422Z,8.13
2018-11-05T09:20:01.358Z,8.17
2018-11-05T09:23:04.917Z,8.25
2018-11-05T09:26:07.856Z,8.24
2018-11-05T09:29:10.798Z,8.33
2018-11-05T09:32:13.721Z,8.36
2018-11-05T09:35:16.805Z,8.43
2018-11-05T09:38:19.745Z,8.49
2018-11-05T09:41:22.672Z,8.60
2018-11-05T09:44:25.546Z,8.61
2018-11-05T09:47:28.504Z,8.78
2018-11-05T09:50:31.527Z,8.85
2018-11-05T09:53:34.446Z,8.87
2018-11-05T09:56:37.449Z,8.73
2018-11-05T09:59:40.981Z,8.95
2018-11-05T10:02:49.563Z,9.06
2018-11-05T10:05:52.456Z,9.09
2018-11-05T10:08:55.471Z,8.91
2018-11-05T10:11:58.382Z,8.90
2018-11-05T10:15:01.298Z,9.06
2018-11-05T10:18:04.337Z,9.15
2018-11-05T10:21:07.335Z,9.18
2018-11-05T10:24:10.294Z,9.32
2018-11-05T10:27:13.244Z,9.55
2018-11-05T10:30:18.862Z,9.43
2018-11-05T10:33:21.829Z,9.18
2018-11-05T10:36:24.760Z,9.47
2018-11-05T10:39:27.768Z,9.37
2018-11-05T10:42:30.702Z,9.05
2018-11-05T10:45:33.663Z,9.37
2018-11-05T10:48:36.721Z,9.33
2018-11-05T10:51:39.752Z,9.63
2018-11-05T10:54:42.651Z,9.25
2018-11-05T10:57:45.890Z,9.61
2018-11-05T11:00:54.494Z,9.53
2018-11-05T11:04:03.101Z,9.55
2018-11-05T11:07:05.991Z,9.94
2018-11-05T11:10:08.937Z,9.90
2018-11-05T11:13:11.882Z,9.48
2018-11-05T11:16:14.849Z,9.52
2018-11-05T11:19:17.804Z,9.60
2018-11-05T11:22:20.741Z,9.86
2018-11-05T11:25:23.669Z,10.18
2018-11-05T11:28:26.683Z,10.10
2018-11-05T11:31:29.478Z,9.90
2018-11-05T11:34:32.441Z,10.07
2018-11-05T11:37:35.390Z,10.15
2018-11-05T11:40:38.337Z,10.47
2018-11-05T11:43:41.299Z,10.59
2018-11-05T11:46:44.194Z,10.90
2018-11-05T11:49:47.510Z,10.97
2018-11-05T11:52:50.993Z,11.06
2018-11-05T11:55:54.064Z,10.77
2018-11-05T11:58:57.040Z,10.71
2018-11-05T12:02:06.007Z,11.12
2018-11-05T12:05:09.639Z,11.02
2018-11-05T12:08:13.067Z,12.30
2018-11-05T12:11:16.279Z,11.26
2018-11-05T12:14:19.381Z,11.25
2018-11-05T12:17:22.573Z,10.95
2018-11-05T12:20:26.036Z,11.22
2018-11-05T12:23:28.878Z,10.85
2018-11-05T12:26:32.244Z,10.88
2018-11-05T12:29:35.207Z,11.23
2018-11-05T12:32:38.459Z,11.36
2018-11-05T12:35:41.688Z,11.32
2018-11-05T12:38:44.671Z,11.46
2018-11-05T12:41:47.564Z,11.40
2018-11-05T12:44:50.520Z,11.47
2018-11-05T12:47:53.414Z,11.42
2018-11-05T12:50:56.345Z,11.10
2018-11-05T12:53:59.346Z,11.14
2018-11-05T12:57:02.316Z,11.33
2018-11-05T13:00:09.386Z,11.17
2018-11-05T13:03:12.306Z,11.37
2018-11-05T13:06:15.257Z,10.99
2018-11-05T13:09:18.185Z,11.25
2018-11-05T13:12:21.088Z,11.14
2018-11-05T13:15:24.062Z,11.22
2018-11-05T13:18:26.993Z,11.06
2018-11-05T13:21:29.946Z,11.30
2018-11-05T13:24:32.896Z,10.93
2018-11-05T13:27:35.883Z,10.71
2018-11-05T13:30:38.826Z,10.71
2018-11-05T13:33:41.742Z,10.99
2018-11-05T13:36:44.805Z,11.19
2018-11-05T13:39:47.691Z,10.80
2018-11-05T13:42:51.248Z,10.86
2018-11-05T13:45:54.896Z,10.86
2018-11-05T13:48:57.838Z,10.71
2018-11-05T13:52:00.264Z,11.07
2018-11-05T13:55:03.401Z,10.86
2018-11-05T13:58:06.192Z,10.63
2018-11-05T14:01:09.117Z,10.95
2018-11-05T14:04:12.148Z,10.92
2018-11-05T14:07:15.117Z,10.97
2018-11-05T14:10:20.476Z,10.96
2018-11-05T14:13:23.401Z,10.96
2018-11-05T14:16:26.365Z,10.96
2018-11-05T14:19:29.233Z,10.96
2018-11-05T14:22:32.163Z,10.99
2018-11-05T14:25:35.210Z,10.92
2018-11-05T14:28:38.394Z,10.90
2018-11-05T14:31:41.111Z,10.90
2018-11-05T14:34:44.052Z,10.73
2018-11-05T14:37:47.029Z,10.80
2018-11-05T14:40:50.024Z,10.76
2018-11-05T14:43:52.933Z,10.69
2018-11-05T14:46:55.905Z,10.66
2018-11-05T14:49:58.859Z,10.61
2018-11-05T14:53:01.751Z,10.56
2018-11-05T14:56:05.390Z,10.57
2018-11-05T14:59:08.359Z,10.54
2018-11-05T15:02:16.899Z,10.52
2018-11-05T15:05:19.957Z,10.39
2018-11-05T15:08:22.853Z,10.45
2018-11-05T15:11:25.887Z,10.47
2018-11-05T15:14:28.823Z,10.41
2018-11-05T15:17:31.789Z,10.38
2018-11-05T15:20:34.768Z,10.38
2018-11-05T15:23:37.740Z,10.29
2018-11-05T15:26:40.727Z,10.35
2018-11-05T15:29:43.624Z,10.37
2018-11-05T15:32:46.653Z,10.33
2018-11-05T15:35:49.549Z,10.27
2018-11-05T15:38:52.502Z,10.27
2018-11-05T15:41:55.427Z,10.18
2018-11-05T15:44:58.359Z,10.25
2018-11-05T15:48:01.966Z,10.25
2018-11-05T15:51:05.118Z,10.16
2018-11-05T15:54:08.064Z,10.15
2018-11-05T15:57:10.946Z,10.14
2018-11-05T16:00:17.279Z,10.11
2018-11-05T16:03:20.330Z,10.02
2018-11-05T16:06:23.250Z,10.03
2018-11-05T16:09:26.245Z,10.32
2018-11-05T16:12:29.141Z,10.54
2018-11-05T16:15:32.101Z,10.28
2018-11-05T16:18:35.120Z,10.11
2018-11-05T16:21:38.090Z,10.03
2018-11-05T16:24:41.001Z,10.01
2018-11-05T16:27:44.155Z,10.00
2018-11-05T16:30:47.221Z,10.00
2018-11-05T16:33:49.989Z,10.00
2018-11-05T16:36:52.899Z,9.97
2018-11-05T16:39:55.850Z,9.90
2018-11-05T16:42:58.800Z,9.87
2018-11-05T16:46:01.692Z,9.91
2018-11-05T16:49:05.102Z,9.95
2018-11-05T16:52:08.813Z,9.91
2018-11-05T16:55:12.837Z,9.88
2018-11-05T16:58:15.779Z,9.84
2018-11-05T17:01:18.902Z,9.92
2018-11-05T17:04:21.672Z,9.92
2018-11-05T17:07:24.573Z,9.89
2018-11-05T17:10:28.278Z,9.85
2018-11-05T17:13:31.387Z,9.81
2018-11-05T17:16:34.333Z,9.86
2018-11-05T17:19:37.289Z,9.85
2018-11-05T17:22:46.946Z,9.82
2018-11-05T17:25:49.891Z,9.79
2018-11-05T17:28:52.837Z,9.79
2018-11-05T17:31:55.784Z,9.75
2018-11-05T17:34:58.674Z,9.81
2018-11-05T17:38:01.612Z,9.73
2018-11-05T17:41:05.319Z,9.70
2018-11-05T17:44:09.637Z,9.71
2018-11-05T17:47:12.577Z,9.71
2018-11-05T17:50:16.737Z,9.66
2018-11-05T17:53:19.740Z,9.70
2018-11-05T17:56:22.789Z,9.69
2018-11-05T17:59:25.733Z,9.63
2018-11-05T18:02:28.693Z,9.59
2018-11-05T18:05:31.629Z,9.57
2018-11-05T18:08:34.585Z,9.56
2018-11-05T18:11:37.546Z,9.58
2018-11-05T18:14:40.521Z,9.56
2018-11-05T18:17:44.365Z,9.53
2018-11-05T18:20:47.301Z,9.54
2018-11-05T18:23:50.293Z,9.53
2018-11-05T18:26:53.332Z,9.54
2018-11-05T18:29:56.302Z,9.52
2018-11-05T18:32:59.296Z,9.53
2018-11-05T18:36:02.299Z,9.51
2018-11-05T18:39:08.708Z,9.47
2018-11-05T18:42:11.993Z,9.48
2018-11-05T18:45:15.112Z,9.48
2018-11-05T18:48:18.066Z,9.47
2018-11-05T18:51:21.088Z,9.42
2018-11-05T18:54:24.128Z,9.42
2018-11-05T18:57:27.129Z,9.41
2018-11-05T19:00:30.066Z,9.41
2018-11-05T19:03:33.150Z,9.38
2018-11-05T19:06:36.058Z,9.40
2018-11-05T19:09:39.049Z,9.41
2018-11-05T19:12:42.050Z,9.43
2018-11-05T19:15:45.093Z,9.37
2018-11-05T19:18:48.156Z,9.41
2018-11-05T19:21:51.081Z,9.42
2018-11-05T19:24:54.103Z,9.43
2018-11-05T19:27:57.169Z,9.43
2018-11-05T19:31:00.225Z,9.54
2018-11-05T19:34:03.422Z,9.55
2018-11-05T19:37:06.837Z,9.55
2018-11-05T19:40:11.124Z,9.58
2018-11-05T19:43:14.135Z,9.55
2018-11-05T19:46:17.151Z,9.53
2018-11-05T19:49:20.492Z,9.52
2018-11-05T19:52:23.541Z,9.47
2018-11-05T19:55:26.607Z,9.43
2018-11-05T19:58:29.650Z,9.53
2018-11-05T20:01:32.636Z,9.52
2018-11-05T20:04:35.682Z,9.49
2018-11-05T20:07:38.675Z,9.40
2018-11-05T20:10:41.725Z,9.42
2018-11-05T20:13:44.694Z,9.40
2018-11-05T20:16:47.764Z,9.37
2018-11-05T20:19:50.753Z,9.35
2018-11-05T20:22:53.983Z,9.32
2018-11-05T20:25:56.872Z,9.37
2018-11-05T20:28:59.946Z,9.34
2018-11-05T20:32:03.222Z,9.32
2018-11-05T20:35:07.126Z,9.38
2018-11-05T20:38:10.188Z,9.34
2018-11-05T20:41:13.137Z,9.34
2018-11-05T20:44:16.135Z,9.35
2018-11-05T20:47:19.965Z,9.38
2018-11-05T20:50:23.237Z,9.37
2018-11-05T20:53:26.423Z,9.32
2018-11-05T20:56:29.992Z,9.30
2018-11-05T20:59:33.551Z,9.30
2018-11-05T21:02:37.074Z,9.25
2018-11-05T21:05:40.373Z,9.26
2018-11-05T21:08:43.980Z,9.28
2018-11-05T21:11:47.522Z,9.24
2018-11-05T21:14:50.852Z,9.28
2018-11-05T21:17:54.066Z,9.26
2018-11-05T21:20:57.387Z,9.22
2018-11-05T21:24:00.754Z,9.28
2018-11-05T21:27:04.093Z,9.30
2018-11-05T21:30:10.289Z,9.24
2018-11-05T21:33:13.433Z,9.31
2018-11-05T21:36:16.424Z,9.19
2018-11-05T21:39:19.585Z,9.23
2018-11-05T21:42:22.826Z,9.53
2018-11-05T21:45:26.013Z,9.71
2018-11-05T21:48:30.152Z,9.45
2018-11-05T21:51:33.903Z,9.33
2018-11-05T21:54:37.241Z,9.41
2018-11-05T21:57:45.403Z,9.37
2018-11-05T22:00:48.825Z,9.32
2018-11-05T22:03:52.486Z,9.28
2018-11-05T22:06:56.133Z,9.18
2018-11-05T22:10:00.025Z,9.18
2018-11-05T22:13:03.590Z,9.19
2018-11-05T22:16:06.803Z,9.17
2018-11-05T22:19:10.841Z,9.19
2018-11-05T22:22:13.765Z,9.31
2018-11-05T22:25:17.421Z,9.28
2018-11-05T22:28:20.460Z,9.33
2018-11-05T22:31:23.605Z,9.24
2018-11-05T22:34:27.020Z,9.13
2018-11-05T22:37:30.215Z,9.20
2018-11-05T22:40:33.156Z,9.21
2018-11-05T22:43:36.163Z,9.23
2018-11-05T22:46:39.079Z,9.28
2018-11-05T22:49:42.049Z,9.21
2018-11-05T22:52:44.945Z,9.30
2018-11-05T22:55:47.890Z,9.31
2018-11-05T22:58:50.798Z,9.30
2018-11-05T23:01:54.577Z,9.23
2018-11-05T23:04:57.458Z,9.29
2018-11-05T23:08:00.365Z,9.27
2018-11-05T23:11:03.336Z,9.29
2018-11-05T23:14:06.312Z,9.35
2018-11-05T23:17:09.294Z,9.38
2018-11-05T23:20:12.178Z,9.43
2018-11-05T23:23:15.223Z,9.35
2018-11-05T23:26:18.214Z,9.42
2018-11-05T23:29:21.167Z,9.43
2018-11-05T23:32:24.422Z,9.52
2018-11-05T23:35:27.326Z,9.39
2018-11-05T23:38:30.206Z,9.40
2018-11-05T23:41:33.079Z,9.37
2018-11-05T23:44:36.068Z,9.39
2018-11-05T23:47:39.087Z,9.46
2018-11-05T23:50:41.998Z,9.46
2018-11-05T23:53:44.904Z,9.41
2018-11-05T23:56:47.837Z,9.44
2018-11-05T23:59:50.936Z,9.42
